createdAt,value
2017-11-12T00:00:50.940Z,997.68
2017-11-12T00:01:50.933Z,997.67
2017-11-12T00:02:50.924Z,997.64
2017-11-12T00:03:50.923Z,997.67
2017-11-12T00:04:50.909Z,997.68
2017-11-12T00:05:50.906Z,997.65
2017-11-12T00:06:50.898Z,997.65
2017-11-12T00:07:50.886Z,997.60
2017-11-12T00:08:50.880Z,997.60
2017-11-12T00:09:50.872Z,997.61
2017-11-12T00:10:50.863Z,997.60
2017-11-12T00:11:50.861Z,997.64
2017-11-12T00:12:50.849Z,997.61
2017-11-12T00:13:50.843Z,997.63
2017-11-12T00:14:50.835Z,997.66
2017-11-12T00:15:50.827Z,997.67
2017-11-12T00:16:50.819Z,997.64
2017-11-12T00:17:50.822Z,997.64
2017-11-12T00:18:50.804Z,997.65
2017-11-12T00:19:50.797Z,997.66
2017-11-12T00:20:50.789Z,997.69
2017-11-12T00:21:50.782Z,997.70
2017-11-12T00:22:50.776Z,997.70
2017-11-12T00:23:50.766Z,997.73
2017-11-12T00:24:50.758Z,997.70
2017-11-12T00:25:50.751Z,997.67
2017-11-12T00:26:50.744Z,997.70
2017-11-12T00:27:50.735Z,997.70
2017-11-12T00:28:50.727Z,997.68
2017-11-12T00:29:50.721Z,997.67
2017-11-12T00:30:50.714Z,997.64
2017-11-12T00:31:50.706Z,997.62
2017-11-12T00:32:50.699Z,997.59
2017-11-12T00:33:50.691Z,997.57
2017-11-12T00:34:50.683Z,997.59
2017-11-12T00:35:50.676Z,997.58
2017-11-12T00:36:50.668Z,997.55
2017-11-12T00:37:50.661Z,997.57
2017-11-12T00:38:50.652Z,997.56
2017-11-12T00:39:50.644Z,997.57
2017-11-12T00:40:50.638Z,997.58
2017-11-12T00:41:50.630Z,997.59
2017-11-12T00:42:50.622Z,997.60
2017-11-12T00:43:50.616Z,997.61
2017-11-12T00:44:50.608Z,997.61
2017-11-12T00:45:50.599Z,997.59
2017-11-12T00:46:50.592Z,997.59
2017-11-12T00:47:50.584Z,997.57
2017-11-12T00:48:50.577Z,997.49
2017-11-12T00:49:50.569Z,997.53
2017-11-12T00:50:50.561Z,997.48
2017-11-12T00:51:50.555Z,997.42
2017-11-12T00:52:50.545Z,997.39
2017-11-12T00:53:50.540Z,997.41
2017-11-12T00:54:50.535Z,997.37
2017-11-12T00:55:50.524Z,997.37
2017-11-12T00:56:50.516Z,997.32
2017-11-12T00:57:50.510Z,997.35
2017-11-12T00:58:50.500Z,997.38
2017-11-12T00:59:50.501Z,997.38
2017-11-12T01:00:50.486Z,997.38
2017-11-12T01:01:50.477Z,997.35
2017-11-12T01:02:50.470Z,997.33
2017-11-12T01:03:50.471Z,997.30
2017-11-12T01:04:50.454Z,997.35
2017-11-12T01:05:50.447Z,997.33
2017-11-12T01:06:50.440Z,997.36
2017-11-12T01:07:50.432Z,997.33
2017-11-12T01:08:50.424Z,997.37
2017-11-12T01:09:50.424Z,997.33
2017-11-12T01:10:50.431Z,997.33
2017-11-12T01:11:50.401Z,997.32
2017-11-12T01:12:50.394Z,997.32
2017-11-12T01:13:50.387Z,997.27
2017-11-12T01:14:50.378Z,997.32
2017-11-12T01:15:50.371Z,997.33
2017-11-12T01:16:50.364Z,997.32
2017-11-12T01:17:50.356Z,997.36
2017-11-12T01:18:50.349Z,997.34
2017-11-12T01:19:50.339Z,997.35
2017-11-12T01:20:50.333Z,997.35
2017-11-12T01:21:50.324Z,997.32
2017-11-12T01:22:50.315Z,997.37
2017-11-12T01:23:50.310Z,997.32
2017-11-12T01:24:50.301Z,997.28
2017-11-12T01:25:50.293Z,997.26
2017-11-12T01:26:50.287Z,997.29
2017-11-12T01:27:50.278Z,997.31
2017-11-12T01:28:50.271Z,997.34
2017-11-12T01:29:50.267Z,997.29
2017-11-12T01:30:50.255Z,997.31
2017-11-12T01:31:50.249Z,997.29
2017-11-12T01:32:50.239Z,997.29
2017-11-12T01:33:50.233Z,997.28
2017-11-12T01:34:50.224Z,997.31
2017-11-12T01:35:50.221Z,997.27
2017-11-12T01:36:50.209Z,997.29
2017-11-12T01:37:50.202Z,997.28
2017-11-12T01:38:50.193Z,997.24
2017-11-12T01:39:50.186Z,997.25
2017-11-12T01:40:50.180Z,997.23
2017-11-12T01:41:50.171Z,997.19
2017-11-12T01:42:50.163Z,997.22
2017-11-12T01:43:50.155Z,997.20
2017-11-12T01:44:50.147Z,997.20
2017-11-12T01:45:50.140Z,997.19
2017-11-12T01:46:50.134Z,997.17
2017-11-12T01:47:50.125Z,997.16
2017-11-12T01:48:50.117Z,997.19
2017-11-12T01:49:50.110Z,997.17
2017-11-12T01:50:50.101Z,997.12
2017-11-12T01:51:50.094Z,997.14
2017-11-12T01:52:50.086Z,997.16
2017-11-12T01:53:50.079Z,997.11
2017-11-12T01:54:50.075Z,997.14
2017-11-12T01:55:50.063Z,997.08
2017-11-12T01:56:50.055Z,997.02
2017-11-12T01:57:50.047Z,997.10
2017-11-12T01:58:50.040Z,997.08
2017-11-12T01:59:50.034Z,997.03
2017-11-12T02:00:50.025Z,997.07
2017-11-12T02:01:50.019Z,997.03
2017-11-12T02:02:50.010Z,997.01
2017-11-12T02:03:50.003Z,996.97
2017-11-12T02:04:50.003Z,997.00
2017-11-12T02:05:49.987Z,996.96
2017-11-12T02:06:49.979Z,996.94
2017-11-12T02:07:49.971Z,996.94
2017-11-12T02:08:49.965Z,996.88
2017-11-12T02:09:49.958Z,996.88
2017-11-12T02:10:49.950Z,996.85
2017-11-12T02:11:49.941Z,996.83
2017-11-12T02:12:49.935Z,996.80
2017-11-12T02:13:49.926Z,996.80
2017-11-12T02:14:49.919Z,996.80
2017-11-12T02:15:49.913Z,996.79
2017-11-12T02:16:49.904Z,996.80
2017-11-12T02:17:49.896Z,996.77
2017-11-12T02:18:49.888Z,996.77
2017-11-12T02:19:49.882Z,996.75
2017-11-12T02:20:49.874Z,996.76
2017-11-12T02:21:49.866Z,996.68
2017-11-12T02:22:49.858Z,996.69
2017-11-12T02:23:49.851Z,996.66
2017-11-12T02:24:49.843Z,996.67
2017-11-12T02:25:49.836Z,996.62
2017-11-12T02:26:49.828Z,996.64
2017-11-12T02:27:49.822Z,996.63
2017-11-12T02:28:49.813Z,996.60
2017-11-12T02:29:49.807Z,996.64
2017-11-12T02:30:49.799Z,996.62
2017-11-12T02:31:49.792Z,996.58
2017-11-12T02:32:49.786Z,996.54
2017-11-12T02:33:49.776Z,996.51
2017-11-12T02:34:49.770Z,996.52
2017-11-12T02:35:49.760Z,996.53
2017-11-12T02:36:49.779Z,996.51
2017-11-12T02:37:49.746Z,996.50
2017-11-12T02:38:49.739Z,996.54
2017-11-12T02:39:49.730Z,996.51
2017-11-12T02:40:49.724Z,996.52
2017-11-12T02:41:49.716Z,996.54
2017-11-12T02:42:49.709Z,996.53
2017-11-12T02:43:49.701Z,996.48
2017-11-12T02:44:49.694Z,996.48
2017-11-12T02:45:49.688Z,996.46
2017-11-12T02:46:49.677Z,996.53
2017-11-12T02:47:49.671Z,996.49
2017-11-12T02:48:49.664Z,996.47
2017-11-12T02:49:49.658Z,996.49
2017-11-12T02:50:49.652Z,996.52
2017-11-12T02:51:49.642Z,996.49
2017-11-12T02:52:49.637Z,996.45
2017-11-12T02:53:49.629Z,996.39
2017-11-12T02:54:49.620Z,996.44
2017-11-12T02:55:49.612Z,996.45
2017-11-12T02:56:49.605Z,996.43
2017-11-12T02:57:49.597Z,996.42
2017-11-12T02:58:49.591Z,996.48
2017-11-12T02:59:49.583Z,996.50
2017-11-12T03:00:49.575Z,996.47
2017-11-12T03:01:49.569Z,996.47
2017-11-12T03:02:49.560Z,996.49
2017-11-12T03:03:49.552Z,996.46
2017-11-12T03:04:49.545Z,996.48
2017-11-12T03:05:49.538Z,996.49
2017-11-12T03:06:49.531Z,996.52
2017-11-12T03:07:49.523Z,996.49
2017-11-12T03:08:49.516Z,996.53
2017-11-12T03:09:49.509Z,996.47
2017-11-12T03:10:49.500Z,996.48
2017-11-12T03:11:49.492Z,996.49
2017-11-12T03:12:49.500Z,996.52
2017-11-12T03:13:49.478Z,996.50
2017-11-12T03:14:49.478Z,996.48
2017-11-12T03:15:49.463Z,996.46
2017-11-12T03:16:49.457Z,996.46
2017-11-12T03:17:49.450Z,996.45
2017-11-12T03:18:49.442Z,996.43
2017-11-12T03:19:49.433Z,996.43
2017-11-12T03:20:49.426Z,996.40
2017-11-12T03:21:49.418Z,996.39
2017-11-12T03:22:49.412Z,996.37
2017-11-12T03:23:49.403Z,996.36
2017-11-12T03:24:49.396Z,996.36
2017-11-12T03:25:49.388Z,996.34
2017-11-12T03:26:49.380Z,996.30
2017-11-12T03:27:49.375Z,996.26
2017-11-12T03:28:49.364Z,996.25
2017-11-12T03:29:49.357Z,996.27
2017-11-12T03:30:49.351Z,996.25
2017-11-12T03:31:49.343Z,996.23
2017-11-12T03:32:49.336Z,996.24
2017-11-12T03:33:49.328Z,996.21
2017-11-12T03:34:49.325Z,996.20
2017-11-12T03:35:49.314Z,996.19
2017-11-12T03:36:49.306Z,996.19
2017-11-12T03:37:49.298Z,996.19
2017-11-12T03:38:49.289Z,996.19
2017-11-12T03:39:49.281Z,996.20
2017-11-12T03:40:49.275Z,996.14
2017-11-12T03:41:49.267Z,996.15
2017-11-12T03:42:49.258Z,996.13
2017-11-12T03:43:49.252Z,996.10
2017-11-12T03:44:49.243Z,996.08
2017-11-12T03:45:49.243Z,996.09
2017-11-12T03:46:49.229Z,996.07
2017-11-12T03:47:49.226Z,996.09
2017-11-12T03:48:49.218Z,996.03
2017-11-12T03:49:49.206Z,996.04
2017-11-12T03:50:49.198Z,996.00
2017-11-12T03:51:49.191Z,995.97
2017-11-12T03:52:49.184Z,995.96
2017-11-12T03:53:49.176Z,995.96
2017-11-12T03:54:49.169Z,995.97
2017-11-12T03:55:49.161Z,996.01
2017-11-12T03:56:49.153Z,995.97
2017-11-12T03:57:49.146Z,996.00
2017-11-12T03:58:49.137Z,996.00
2017-11-12T03:59:49.130Z,995.98
2017-11-12T04:00:49.122Z,995.93
2017-11-12T04:01:49.115Z,995.91
2017-11-12T04:02:49.107Z,995.91
2017-11-12T04:03:49.099Z,995.88
2017-11-12T04:04:49.091Z,995.85
2017-11-12T04:05:49.084Z,995.85
2017-11-12T04:06:49.075Z,995.86
2017-11-12T04:07:49.068Z,995.89
2017-11-12T04:08:49.060Z,995.86
2017-11-12T04:09:49.054Z,995.86
2017-11-12T04:10:49.046Z,995.84
2017-11-12T04:11:49.038Z,995.81
2017-11-12T04:12:49.030Z,995.77
2017-11-12T04:13:49.023Z,995.76
2017-11-12T04:14:49.015Z,995.73
2017-11-12T04:15:49.006Z,995.75
2017-11-12T04:16:48.999Z,995.75
2017-11-12T04:17:48.993Z,995.74
2017-11-12T04:18:48.983Z,995.75
2017-11-12T04:19:48.975Z,995.75
2017-11-12T04:20:48.967Z,995.76
2017-11-12T04:21:48.958Z,995.75
2017-11-12T04:22:48.954Z,995.75
2017-11-12T04:23:48.943Z,995.72
2017-11-12T04:24:48.935Z,995.71
2017-11-12T04:25:48.928Z,995.70
2017-11-12T04:26:48.919Z,995.66
2017-11-12T04:27:48.913Z,995.66
2017-11-12T04:28:48.904Z,995.62
2017-11-12T04:29:48.896Z,995.65
2017-11-12T04:30:48.888Z,995.69
2017-11-12T04:31:48.880Z,995.65
2017-11-12T04:32:48.874Z,995.63
2017-11-12T04:33:48.865Z,995.59
2017-11-12T04:34:48.864Z,995.56
2017-11-12T04:35:48.849Z,995.54
2017-11-12T04:36:48.841Z,995.53
2017-11-12T04:37:48.833Z,995.47
2017-11-12T04:38:48.825Z,995.50
2017-11-12T04:39:48.818Z,995.50
2017-11-12T04:40:48.811Z,995.46
2017-11-12T04:41:48.806Z,995.43
2017-11-12T04:42:48.795Z,995.46
2017-11-12T04:43:48.788Z,995.43
2017-11-12T04:44:48.780Z,995.38
2017-11-12T04:45:48.773Z,995.39
2017-11-12T04:46:48.764Z,995.34
2017-11-12T04:47:48.763Z,995.33
2017-11-12T04:48:48.749Z,995.28
2017-11-12T04:49:48.741Z,995.18
2017-11-12T04:50:48.735Z,995.12
2017-11-12T04:51:48.727Z,995.10
2017-11-12T04:52:48.725Z,995.12
2017-11-12T04:53:48.711Z,995.13
2017-11-12T04:54:48.703Z,995.16
2017-11-12T04:55:48.696Z,995.15
2017-11-12T04:56:48.688Z,995.13
2017-11-12T04:57:48.682Z,995.07
2017-11-12T04:58:48.674Z,995.09
2017-11-12T04:59:48.667Z,995.02
2017-11-12T05:00:48.660Z,995.00
2017-11-12T05:01:48.653Z,994.97
2017-11-12T05:02:48.644Z,994.92
2017-11-12T05:03:48.637Z,994.91
2017-11-12T05:04:48.629Z,994.90
2017-11-12T05:05:48.633Z,994.94
2017-11-12T05:06:48.613Z,994.92
2017-11-12T05:07:48.605Z,994.98
2017-11-12T05:08:48.599Z,995.03
2017-11-12T05:09:48.593Z,995.09
2017-11-12T05:10:48.584Z,995.11
2017-11-12T05:11:48.575Z,995.14
2017-11-12T05:12:48.568Z,995.15
2017-11-12T05:13:48.561Z,995.10
2017-11-12T05:14:48.552Z,995.07
2017-11-12T05:15:48.544Z,995.01
2017-11-12T05:16:48.537Z,994.94
2017-11-12T05:17:48.531Z,994.89
2017-11-12T05:18:48.521Z,994.88
2017-11-12T05:19:48.516Z,994.88
2017-11-12T05:20:48.509Z,994.89
2017-11-12T05:21:48.501Z,994.89
2017-11-12T05:22:48.493Z,994.89
2017-11-12T05:23:48.485Z,994.85
2017-11-12T05:24:48.478Z,994.84
2017-11-12T05:25:48.471Z,994.78
2017-11-12T05:26:48.463Z,994.82
2017-11-12T05:27:48.457Z,994.79
2017-11-12T05:28:48.449Z,994.80
2017-11-12T05:29:48.442Z,994.79
2017-11-12T05:30:48.434Z,994.82
2017-11-12T05:31:48.426Z,994.80
2017-11-12T05:32:48.419Z,994.80
2017-11-12T05:33:48.412Z,994.80
2017-11-12T05:34:48.404Z,994.76
2017-11-12T05:35:48.396Z,994.69
2017-11-12T05:36:48.388Z,994.68
2017-11-12T05:37:48.382Z,994.68
2017-11-12T05:38:48.374Z,994.64
2017-11-12T05:39:48.367Z,994.65
2017-11-12T05:40:48.362Z,994.63
2017-11-12T05:41:48.353Z,994.55
2017-11-12T05:42:48.345Z,994.55
2017-11-12T05:43:48.337Z,994.51
2017-11-12T05:44:48.330Z,994.49
2017-11-12T05:45:48.323Z,994.49
2017-11-12T05:46:48.316Z,994.46
2017-11-12T05:47:48.310Z,994.40
2017-11-12T05:48:48.302Z,994.45
2017-11-12T05:49:48.294Z,994.37
2017-11-12T05:50:48.286Z,994.39
2017-11-12T05:51:48.280Z,994.36
2017-11-12T05:52:48.273Z,994.30
2017-11-12T05:53:48.265Z,994.25
2017-11-12T05:54:48.256Z,994.24
2017-11-12T05:55:48.250Z,994.21
2017-11-12T05:56:48.243Z,994.15
2017-11-12T05:57:48.236Z,994.13
2017-11-12T05:58:48.228Z,994.06
2017-11-12T05:59:48.222Z,994.02
2017-11-12T06:00:48.213Z,993.99
2017-11-12T06:01:48.207Z,993.97
2017-11-12T06:02:48.202Z,993.96
2017-11-12T06:03:48.192Z,993.94
2017-11-12T06:04:48.183Z,993.87
2017-11-12T06:05:48.178Z,993.84
2017-11-12T06:06:48.171Z,993.83
2017-11-12T06:07:48.164Z,993.79
2017-11-12T06:08:48.156Z,993.72
2017-11-12T06:09:48.149Z,993.71
2017-11-12T06:10:48.142Z,993.70
2017-11-12T06:11:48.135Z,993.63
2017-11-12T06:12:48.127Z,993.62
2017-11-12T06:13:48.120Z,993.60
2017-11-12T06:14:48.114Z,993.59
2017-11-12T06:15:48.106Z,993.52
2017-11-12T06:16:48.098Z,993.50
2017-11-12T06:17:48.094Z,993.49
2017-11-12T06:18:48.085Z,993.47
2017-11-12T06:19:48.079Z,993.43
2017-11-12T06:20:48.071Z,993.39
2017-11-12T06:21:48.064Z,993.40
2017-11-12T06:22:48.056Z,993.38
2017-11-12T06:23:48.049Z,993.36
2017-11-12T06:24:48.042Z,993.38
2017-11-12T06:25:48.035Z,993.36
2017-11-12T06:26:48.028Z,993.36
2017-11-12T06:27:48.022Z,993.33
2017-11-12T06:28:48.014Z,993.34
2017-11-12T06:29:48.006Z,993.32
2017-11-12T06:30:47.999Z,993.30
2017-11-12T06:31:47.992Z,993.33
2017-11-12T06:32:47.985Z,993.30
2017-11-12T06:33:47.979Z,993.32
2017-11-12T06:34:47.972Z,993.34
2017-11-12T06:35:47.963Z,993.29
2017-11-12T06:36:47.959Z,993.28
2017-11-12T06:37:47.951Z,993.28
2017-11-12T06:38:47.945Z,993.26
2017-11-12T06:39:47.936Z,993.19
2017-11-12T06:40:47.929Z,993.18
2017-11-12T06:41:47.949Z,993.18
2017-11-12T06:42:47.914Z,993.14
2017-11-12T06:43:47.912Z,993.10
2017-11-12T06:44:47.902Z,993.16
2017-11-12T06:45:47.893Z,993.17
2017-11-12T06:46:47.886Z,993.15
2017-11-12T06:47:47.879Z,993.12
2017-11-12T06:48:47.872Z,993.10
2017-11-12T06:49:47.865Z,993.04
2017-11-12T06:50:47.857Z,993.04
2017-11-12T06:51:47.851Z,993.06
2017-11-12T06:52:47.844Z,993.02
2017-11-12T06:53:47.836Z,993.00
2017-11-12T06:54:47.830Z,992.97
2017-11-12T06:55:47.826Z,992.93
2017-11-12T06:56:47.816Z,992.94
2017-11-12T06:57:47.809Z,992.95
2017-11-12T06:58:47.801Z,992.90
2017-11-12T06:59:47.794Z,992.77
2017-11-12T07:00:47.788Z,992.85
2017-11-12T07:01:47.781Z,992.82
2017-11-12T07:02:47.773Z,992.82
2017-11-12T07:03:47.767Z,992.73
2017-11-12T07:04:47.760Z,992.74
2017-11-12T07:05:47.758Z,992.70
2017-11-12T07:06:47.754Z,992.69
2017-11-12T07:07:47.743Z,992.67
2017-11-12T07:08:47.732Z,992.69
2017-11-12T07:09:47.726Z,992.69
2017-11-12T07:10:47.719Z,992.70
2017-11-12T07:11:47.712Z,992.69
2017-11-12T07:12:47.705Z,992.67
2017-11-12T07:13:47.698Z,992.66
2017-11-12T07:14:47.691Z,992.65
2017-11-12T07:15:47.684Z,992.61
2017-11-12T07:16:47.678Z,992.64
2017-11-12T07:17:47.672Z,992.61
2017-11-12T07:18:47.664Z,992.54
2017-11-12T07:19:47.655Z,992.54
2017-11-12T07:20:47.650Z,992.54
2017-11-12T07:21:47.643Z,992.56
2017-11-12T07:22:47.635Z,992.58
2017-11-12T07:23:47.628Z,992.56
2017-11-12T07:24:47.623Z,992.51
2017-11-12T07:25:47.616Z,992.53
2017-11-12T07:26:47.607Z,992.51
2017-11-12T07:27:47.601Z,992.52
2017-11-12T07:28:47.596Z,992.46
2017-11-12T07:29:47.587Z,992.47
2017-11-12T07:30:47.586Z,992.47
2017-11-12T07:31:47.574Z,992.47
2017-11-12T07:32:47.567Z,992.49
2017-11-12T07:33:47.560Z,992.42
2017-11-12T07:34:47.554Z,992.45
2017-11-12T07:35:47.546Z,992.48
2017-11-12T07:36:47.547Z,992.44
2017-11-12T07:37:47.533Z,992.44
2017-11-12T07:38:47.525Z,992.45
2017-11-12T07:39:47.520Z,992.42
2017-11-12T07:40:47.512Z,992.45
2017-11-12T07:41:47.505Z,992.42
2017-11-12T07:42:47.498Z,992.40
2017-11-12T07:43:47.491Z,992.36
2017-11-12T07:44:47.486Z,992.34
2017-11-12T07:45:47.479Z,992.35
2017-11-12T07:46:47.471Z,992.29
2017-11-12T07:47:47.464Z,992.28
2017-11-12T07:48:47.458Z,992.27
2017-11-12T07:49:47.451Z,992.29
2017-11-12T07:50:47.444Z,992.30
2017-11-12T07:51:47.438Z,992.27
2017-11-12T07:52:47.431Z,992.28
2017-11-12T07:53:47.424Z,992.30
2017-11-12T07:54:47.417Z,992.29
2017-11-12T07:55:47.410Z,992.27
2017-11-12T07:56:47.405Z,992.27
2017-11-12T07:57:47.396Z,992.23
2017-11-12T07:58:47.389Z,992.17
2017-11-12T07:59:47.383Z,992.18
2017-11-12T08:00:47.377Z,992.19
2017-11-12T08:01:47.370Z,992.19
2017-11-12T08:02:47.379Z,992.24
2017-11-12T08:03:47.356Z,992.21
2017-11-12T08:04:47.350Z,992.20
2017-11-12T08:05:47.343Z,992.22
2017-11-12T08:06:47.336Z,992.18
2017-11-12T08:07:47.329Z,992.25
2017-11-12T08:08:47.323Z,992.25
2017-11-12T08:09:47.316Z,992.29
2017-11-12T08:10:47.308Z,992.27
2017-11-12T08:11:47.303Z,992.25
2017-11-12T08:12:47.296Z,992.23
2017-11-12T08:13:47.291Z,992.25
2017-11-12T08:14:47.283Z,992.28
2017-11-12T08:15:47.278Z,992.30
2017-11-12T08:16:47.282Z,992.28
2017-11-12T08:17:47.262Z,992.30
2017-11-12T08:18:47.257Z,992.32
2017-11-12T08:19:47.251Z,992.24
2017-11-12T08:20:47.244Z,992.23
2017-11-12T08:21:47.237Z,992.20
2017-11-12T08:22:47.231Z,992.24
2017-11-12T08:23:47.224Z,992.22
2017-11-12T08:24:47.218Z,992.24
2017-11-12T08:25:47.211Z,992.22
2017-11-12T08:26:47.203Z,992.22
2017-11-12T08:27:47.198Z,992.18
2017-11-12T08:28:47.192Z,992.16
2017-11-12T08:29:47.185Z,992.14
2017-11-12T08:30:47.179Z,992.10
2017-11-12T08:31:47.171Z,992.08
2017-11-12T08:32:47.166Z,992.07
2017-11-12T08:33:47.158Z,992.04
2017-11-12T08:34:47.152Z,992.00
2017-11-12T08:35:47.144Z,992.01
2017-11-12T08:36:47.137Z,992.03
2017-11-12T08:37:47.132Z,992.05
2017-11-12T08:38:47.131Z,992.03
2017-11-12T08:39:47.117Z,992.03
2017-11-12T08:40:47.110Z,991.99
2017-11-12T08:41:47.104Z,992.01
2017-11-12T08:42:47.097Z,992.01
2017-11-12T08:43:47.092Z,991.98
2017-11-12T08:44:47.084Z,991.95
2017-11-12T08:45:47.078Z,991.94
2017-11-12T08:46:47.069Z,991.84
2017-11-12T08:47:47.064Z,991.85
2017-11-12T08:48:47.058Z,991.82
2017-11-12T08:49:47.052Z,991.82
2017-11-12T08:50:47.049Z,991.79
2017-11-12T08:51:47.037Z,991.77
2017-11-12T08:52:47.031Z,991.78
2017-11-12T08:53:47.025Z,991.77
2017-11-12T08:54:47.017Z,991.72
2017-11-12T08:55:47.012Z,991.71
2017-11-12T08:56:47.004Z,991.70
2017-11-12T08:57:46.998Z,991.61
2017-11-12T08:58:46.991Z,991.58
2017-11-12T08:59:46.984Z,991.58
2017-11-12T09:00:46.978Z,991.57
2017-11-12T09:01:46.971Z,991.58
2017-11-12T09:02:46.965Z,991.54
2017-11-12T09:03:46.960Z,991.53
2017-11-12T09:04:46.952Z,991.51
2017-11-12T09:05:46.945Z,991.50
2017-11-12T09:06:46.938Z,991.46
2017-11-12T09:07:46.932Z,991.47
2017-11-12T09:08:46.925Z,991.41
2017-11-12T09:09:46.921Z,991.39
2017-11-12T09:10:46.913Z,991.36
2017-11-12T09:11:46.906Z,991.29
2017-11-12T09:12:46.904Z,991.25
2017-11-12T09:13:46.895Z,991.26
2017-11-12T09:14:46.886Z,991.28
2017-11-12T09:15:46.880Z,991.25
2017-11-12T09:16:46.875Z,991.26
2017-11-12T09:17:46.870Z,991.22
2017-11-12T09:18:46.861Z,991.25
2017-11-12T09:19:46.855Z,991.22
2017-11-12T09:20:46.854Z,991.22
2017-11-12T09:21:46.843Z,991.23
2017-11-12T09:22:46.835Z,991.23
2017-11-12T09:23:46.830Z,991.22
2017-11-12T09:24:46.824Z,991.16
2017-11-12T09:25:46.818Z,991.16
2017-11-12T09:26:46.811Z,991.17
2017-11-12T09:27:46.805Z,991.12
2017-11-12T09:28:46.801Z,991.06
2017-11-12T09:29:46.793Z,991.03
2017-11-12T09:30:46.785Z,991.04
2017-11-12T09:31:46.780Z,990.98
2017-11-12T09:32:46.774Z,990.96
2017-11-12T09:33:46.778Z,990.92
2017-11-12T09:34:46.761Z,990.93
2017-11-12T09:35:46.755Z,990.91
2017-11-12T09:36:46.749Z,990.89
2017-11-12T09:37:46.743Z,990.87
2017-11-12T09:38:46.737Z,990.84
2017-11-12T09:39:46.730Z,990.82
2017-11-12T09:40:46.725Z,990.82
2017-11-12T09:41:46.718Z,990.79
2017-11-12T09:42:46.711Z,990.82
2017-11-12T09:43:46.705Z,990.78
2017-11-12T09:44:46.700Z,990.78
2017-11-12T09:45:46.693Z,990.76
2017-11-12T09:46:46.687Z,990.72
2017-11-12T09:47:46.682Z,990.73
2017-11-12T09:48:46.674Z,990.72
2017-11-12T09:49:46.668Z,990.70
2017-11-12T09:50:46.663Z,990.70
2017-11-12T09:51:46.657Z,990.71
2017-11-12T09:52:46.651Z,990.70
2017-11-12T09:53:46.647Z,990.67
2017-11-12T09:54:46.637Z,990.64
2017-11-12T09:55:46.632Z,990.63
2017-11-12T09:56:46.627Z,990.64
2017-11-12T09:57:46.619Z,990.61
2017-11-12T09:58:46.614Z,990.62
2017-11-12T09:59:46.609Z,990.58
2017-11-12T10:00:46.603Z,990.53
2017-11-12T10:01:46.599Z,990.49
2017-11-12T10:02:46.593Z,990.47
2017-11-12T10:03:46.585Z,990.46
2017-11-12T10:04:46.579Z,990.46
2017-11-12T10:05:46.573Z,990.45
2017-11-12T10:06:46.567Z,990.43
2017-11-12T10:07:46.562Z,990.44
2017-11-12T10:08:46.555Z,990.39
2017-11-12T10:09:46.549Z,990.43
2017-11-12T10:10:46.542Z,990.40
2017-11-12T10:11:46.536Z,990.39
2017-11-12T10:12:46.531Z,990.37
2017-11-12T10:13:46.524Z,990.33
2017-11-12T10:14:46.519Z,990.37
2017-11-12T10:15:46.513Z,990.37
2017-11-12T10:16:46.508Z,990.35
2017-11-12T10:17:46.502Z,990.32
2017-11-12T10:18:46.506Z,990.29
2017-11-12T10:19:46.489Z,990.21
2017-11-12T10:20:46.483Z,990.19
2017-11-12T10:21:46.478Z,990.19
2017-11-12T10:22:46.471Z,990.18
2017-11-12T10:23:46.467Z,990.15
2017-11-12T10:24:46.461Z,990.17
2017-11-12T10:25:46.455Z,990.17
2017-11-12T10:26:46.447Z,990.18
2017-11-12T10:27:46.444Z,990.10
2017-11-12T10:28:46.438Z,990.09
2017-11-12T10:29:46.430Z,990.09
2017-11-12T10:30:46.424Z,990.06
2017-11-12T10:31:46.419Z,990.10
2017-11-12T10:32:46.412Z,990.05
2017-11-12T10:33:46.406Z,990.03
2017-11-12T10:34:46.400Z,990.03
2017-11-12T10:35:46.394Z,989.90
2017-11-12T10:36:46.388Z,989.91
2017-11-12T10:37:46.383Z,989.88
2017-11-12T10:38:46.375Z,989.83
2017-11-12T10:39:46.369Z,989.81
2017-11-12T10:40:46.364Z,989.81
2017-11-12T10:41:46.358Z,989.75
2017-11-12T10:42:46.352Z,989.77
2017-11-12T10:43:46.345Z,989.70
2017-11-12T10:44:46.353Z,989.70
2017-11-12T10:45:46.438Z,989.69
2017-11-12T10:46:46.328Z,989.67
2017-11-12T10:47:46.324Z,989.66
2017-11-12T10:48:46.316Z,989.65
2017-11-12T10:49:46.311Z,989.63
2017-11-12T10:50:46.305Z,989.60
2017-11-12T10:51:46.301Z,989.60
2017-11-12T10:52:46.293Z,989.62
2017-11-12T10:53:46.289Z,989.62
2017-11-12T10:54:46.280Z,989.70
2017-11-12T10:55:46.426Z,989.65
2017-11-12T10:56:46.268Z,989.65
2017-11-12T10:57:46.263Z,989.59
2017-11-12T10:58:46.258Z,989.58
2017-11-12T10:59:46.252Z,989.51
2017-11-12T11:00:46.248Z,989.48
2017-11-12T11:01:46.241Z,989.42
2017-11-12T11:02:46.234Z,989.42
2017-11-12T11:03:46.229Z,989.40
2017-11-12T11:04:46.223Z,989.38
2017-11-12T11:05:46.219Z,989.41
2017-11-12T11:06:46.235Z,989.44
2017-11-12T11:07:46.206Z,989.41
2017-11-12T11:08:46.201Z,989.41
2017-11-12T11:09:46.196Z,989.36
2017-11-12T11:10:46.188Z,989.40
2017-11-12T11:11:46.183Z,989.40
2017-11-12T11:12:46.177Z,989.34
2017-11-12T11:13:46.171Z,989.34
2017-11-12T11:14:46.165Z,989.39
2017-11-12T11:15:46.163Z,989.32
2017-11-12T11:16:46.306Z,989.34
2017-11-12T11:17:46.156Z,989.30
2017-11-12T11:18:46.143Z,989.34
2017-11-12T11:19:46.156Z,989.32
2017-11-12T11:20:46.133Z,989.38
2017-11-12T11:21:46.127Z,989.35
2017-11-12T11:22:46.123Z,989.31
2017-11-12T11:23:46.117Z,989.28
2017-11-12T11:24:46.109Z,989.30
2017-11-12T11:25:46.106Z,989.28
2017-11-12T11:26:46.099Z,989.26
2017-11-12T11:27:46.094Z,989.26
2017-11-12T11:28:46.090Z,989.26
2017-11-12T11:29:46.083Z,989.28
2017-11-12T11:30:46.076Z,989.22
2017-11-12T11:31:46.072Z,989.21
2017-11-12T11:32:46.065Z,989.22
2017-11-12T11:33:46.060Z,989.22
2017-11-12T11:34:46.053Z,989.16
2017-11-12T11:35:46.049Z,989.18
2017-11-12T11:36:46.047Z,989.12
2017-11-12T11:37:46.040Z,989.13
2017-11-12T11:38:46.032Z,989.07
2017-11-12T11:39:46.028Z,989.04
2017-11-12T11:40:46.022Z,989.02
2017-11-12T11:41:46.020Z,989.00
2017-11-12T11:42:46.010Z,989.00
2017-11-12T11:43:46.005Z,988.92
2017-11-12T11:44:46.000Z,988.92
2017-11-12T11:45:45.995Z,988.90
2017-11-12T11:46:45.986Z,988.91
2017-11-12T11:47:45.983Z,988.90
2017-11-12T11:48:45.977Z,988.95
2017-11-12T11:49:45.973Z,988.92
2017-11-12T11:50:45.966Z,988.94
2017-11-12T11:51:45.960Z,988.96
2017-11-12T11:52:45.956Z,988.95
2017-11-12T11:53:45.957Z,988.99
2017-11-12T11:54:45.945Z,988.97
2017-11-12T11:55:45.940Z,989.03
2017-11-12T11:56:45.933Z,989.04
2017-11-12T11:57:45.931Z,989.03
2017-11-12T11:58:45.923Z,989.03
2017-11-12T11:59:45.919Z,989.03
2017-11-12T12:00:45.913Z,989.03
2017-11-12T12:01:45.907Z,989.01
2017-11-12T12:02:45.902Z,989.03
2017-11-12T12:03:45.897Z,989.06
2017-11-12T12:04:45.891Z,989.07
2017-11-12T12:05:45.885Z,989.05
2017-11-12T12:06:45.880Z,989.05
2017-11-12T12:07:45.875Z,989.04
2017-11-12T12:08:45.870Z,989.05
2017-11-12T12:09:45.864Z,989.05
2017-11-12T12:10:45.858Z,989.03
2017-11-12T12:11:45.854Z,989.02
2017-11-12T12:12:45.848Z,989.03
2017-11-12T12:13:45.845Z,989.01
2017-11-12T12:14:45.837Z,989.02
2017-11-12T12:15:45.832Z,988.98
2017-11-12T12:16:45.828Z,989.03
2017-11-12T12:17:45.823Z,989.01
2017-11-12T12:18:45.823Z,989.03
2017-11-12T12:19:45.810Z,989.03
2017-11-12T12:20:45.805Z,989.02
2017-11-12T12:21:45.800Z,988.97
2017-11-12T12:22:45.795Z,988.95
2017-11-12T12:23:45.789Z,988.96
2017-11-12T12:24:45.784Z,988.95
2017-11-12T12:25:45.779Z,988.89
2017-11-12T12:26:45.773Z,988.88
2017-11-12T12:27:45.768Z,988.86
2017-11-12T12:28:45.769Z,988.84